Time;durP1;ratioP1;P1;durP2;ratioP2;P2;SDS_P1;SDS_P2;PMS_P1;PMS_P2;Temp;Humidity;BMP_temperature;BMP_pressure;BME280_temperature;BME280_humidity;BME280_pressure;Samples;Min_cycle;Max_cycle;Signal;HPM_P1;HPM_P2
2023/07/16 04:02:40;;;;;;;1999.90;999.90;;;;;;;;;;5063607;23;20247;-73
2023/07/16 04:05:25;;;;;;;1999.90;999.90;;;;;;;;;;4956530;28;20251;-73
2023/07/16 04:08:10;;;;;;;1999.90;999.90;;;;;;;;;;4938716;28;20209;-73
2023/07/16 04:10:55;;;;;;;1999.90;999.90;;;;;;;;;;4934647;29;20833;-73
2023/07/16 04:13:40;;;;;;;1999.90;999.90;;;;;;;;;;4935759;29;20232;-73
2023/07/16 04:16:25;;;;;;;1999.90;999.90;;;;;;;;;;4935742;29;20253;-73
2023/07/16 04:19:11;;;;;;;1999.90;999.90;;;;;;;;;;4935146;29;20209;-72
2023/07/16 04:21:56;;;;;;;1999.90;999.90;;;;;;;;;;4935684;29;20237;-73
2023/07/16 04:24:40;;;;;;;1999.90;999.90;;;;;;;;;;4935755;29;20205;-72
2023/07/16 04:27:25;;;;;;;1999.90;999.90;;;;;;;;;;4935611;29;20206;-72
2023/07/16 04:30:10;;;;;;;1999.90;999.90;;;;;;;;;;4935248;29;20293;-72
2023/07/16 04:32:55;;;;;;;1999.90;999.90;;;;;;;;;;4935493;29;20261;-72
2023/07/16 04:35:42;;;;;;;1999.90;999.90;;;;;;;;;;4935197;29;20750;-72
2023/07/16 04:38:27;;;;;;;1999.90;999.90;;;;;;;;;;4935663;29;20297;-74
2023/07/16 04:41:13;;;;;;;1999.90;999.90;;;;;;;;;;4935531;29;20633;-76
2023/07/16 04:43:58;;;;;;;1999.90;999.90;;;;;;;;;;4935304;29;20591;-72
2023/07/16 04:46:43;;;;;;;1999.90;999.90;;;;;;;;;;4935677;29;20221;-73
2023/07/16 04:49:28;;;;;;;1999.90;999.90;;;;;;;;;;4934909;29;20238;-73
2023/07/16 04:52:14;;;;;;;1999.90;999.90;;;;;;;;;;4935307;29;20756;-73
2023/07/16 04:54:59;;;;;;;1999.90;999.90;;;;;;;;;;4934793;29;20729;-73
2023/07/16 04:57:44;;;;;;;1999.90;999.90;;;;;;;;;;4935073;29;20795;-73
2023/07/16 05:00:28;;;;;;;1999.90;999.90;;;;;;;;;;4934559;29;20750;-73
2023/07/16 05:03:13;;;;;;;1999.90;999.90;;;;;;;;;;4934982;29;20201;-73
2023/07/16 05:05:58;;;;;;;1999.90;999.90;;;;;;;;;;4934000;29;20494;-74
2023/07/16 05:08:44;;;;;;;1999.90;999.90;;;;;;;;;;4934975;29;20691;-74
2023/07/16 05:11:29;;;;;;;1999.90;999.90;;;;;;;;;;4934758;29;20309;-73
2023/07/16 05:14:14;;;;;;;1999.90;999.90;;;;;;;;;;4934655;29;20305;-72
2023/07/16 05:16:59;;;;;;;1999.90;999.90;;;;;;;;;;4934975;29;20209;-73
2023/07/16 05:19:44;;;;;;;1999.90;999.90;;;;;;;;;;4934532;29;20698;-73
2023/07/16 05:22:29;;;;;;;1999.90;999.90;;;;;;;;;;4934671;29;20717;-72
2023/07/16 05:25:16;;;;;;;1999.90;999.90;;;;;;;;;;4934907;29;20338;-73
2023/07/16 05:28:01;;;;;;;1999.90;999.90;;;;;;;;;;4934692;29;20718;-73
2023/07/16 05:30:46;;;;;;;1999.90;999.90;;;;;;;;;;4934311;29;20234;-74
2023/07/16 05:33:31;;;;;;;1999.90;999.90;;;;;;;;;;4934498;29;20755;-73
2023/07/16 05:36:16;;;;;;;1999.90;999.90;;;;;;;;;;4934669;29;20285;-74
2023/07/16 05:39:01;;;;;;;1999.90;999.90;;;;;;;;;;4934776;29;20215;-74
2023/07/16 05:41:47;;;;;;;1999.90;999.90;;;;;;;;;;4933164;29;20437;-74
2023/07/16 05:44:32;;;;;;;1999.90;999.90;;;;;;;;;;4934590;29;20591;-76
2023/07/16 05:47:17;;;;;;;1999.90;999.90;;;;;;;;;;4934771;29;20212;-74
2023/07/16 05:50:02;;;;;;;1999.90;999.90;;;;;;;;;;4934283;29;20298;-74
2023/07/16 05:52:48;;;;;;;1999.90;999.90;;;;;;;;;;4934514;29;20216;-74
2023/07/16 05:55:33;;;;;;;1999.90;999.90;;;;;;;;;;4934299;29;20284;-73
2023/07/16 05:58:20;;;;;;;1999.90;999.90;;;;;;;;;;4934174;29;20212;-73
2023/07/16 06:01:05;;;;;;;1999.90;999.90;;;;;;;;;;4933302;29;20525;-74
2023/07/16 06:03:50;;;;;;;1999.90;999.90;;;;;;;;;;4934501;29;20209;-73
2023/07/16 06:06:34;;;;;;;1999.90;999.90;;;;;;;;;;4934251;29;20712;-73
2023/07/16 06:09:19;;;;;;;1999.90;999.90;;;;;;;;;;4933863;29;20205;-74
2023/07/16 06:12:04;;;;;;;1999.90;999.90;;;;;;;;;;4934371;29;20225;-74
2023/07/16 06:14:51;;;;;;;1999.90;999.90;;;;;;;;;;4934235;29;20250;-74
2023/07/16 06:17:35;;;;;;;1999.90;999.90;;;;;;;;;;4934311;29;20331;-74
2023/07/16 06:20:20;;;;;;;1999.90;999.90;;;;;;;;;;4933614;29;20215;-73
2023/07/16 06:23:06;;;;;;;1999.90;999.90;;;;;;;;;;4934282;29;20215;-74
2023/07/16 06:25:54;;;;;;;1999.90;999.90;;;;;;;;;;4934395;29;20260;-73
2023/07/16 06:28:39;;;;;;;1999.90;999.90;;;;;;;;;;4937639;29;20213;-75
2023/07/16 06:31:25;;;;;;;1999.90;999.90;;;;;;;;;;4937566;29;20228;-74
2023/07/16 06:34:10;;;;;;;1999.90;999.90;;;;;;;;;;4937384;29;20438;-74
2023/07/16 06:36:55;;;;;;;1999.90;999.90;;;;;;;;;;4937531;29;20273;-74
2023/07/16 06:39:40;;;;;;;1999.90;999.90;;;;;;;;;;4937583;29;20674;-74
2023/07/16 06:42:25;;;;;;;1999.90;999.90;;;;;;;;;;4937686;29;20281;-75
2023/07/16 06:45:10;;;;;;;1999.90;999.90;;;;;;;;;;4937474;29;20586;-74
2023/07/16 06:47:56;;;;;;;1999.90;999.90;;;;;;;;;;4937603;29;20212;-74
2023/07/16 06:50:41;;;;;;;1999.90;999.90;;;;;;;;;;4936886;29;20846;-74
2023/07/16 06:53:26;;;;;;;1999.90;999.90;;;;;;;;;;4937312;29;20278;-74
2023/07/16 06:56:11;;;;;;;1999.90;999.90;;;;;;;;;;4936277;29;20417;-74
2023/07/16 06:58:56;;;;;;;1999.90;999.90;;;;;;;;;;4936890;29;20701;-73
2023/07/16 07:01:41;;;;;;;1999.90;999.90;;;;;;;;;;4936678;29;20237;-74
2023/07/16 07:04:27;;;;;;;1999.90;999.90;;;;;;;;;;4937096;29;20578;-74
2023/07/16 07:07:12;;;;;;;1999.90;999.90;;;;;;;;;;4936904;29;20786;-74
2023/07/16 07:09:56;;;;;;;1999.90;999.90;;;;;;;;;;4936883;29;20410;-75
2023/07/16 07:12:41;;;;;;;1999.90;999.90;;;;;;;;;;4936516;29;20221;-74
2023/07/16 07:15:26;;;;;;;1999.90;999.90;;;;;;;;;;4936721;29;20226;-74
2023/07/16 07:18:11;;;;;;;1999.90;999.90;;;;;;;;;;4936918;29;20594;-74
2023/07/16 07:20:57;;;;;;;1999.90;999.90;;;;;;;;;;4936759;29;20588;-73
2023/07/16 07:23:42;;;;;;;1999.90;999.90;;;;;;;;;;4936488;29;20208;-74
2023/07/16 07:26:28;;;;;;;1999.90;999.90;;;;;;;;;;4936631;29;20209;-73
2023/07/16 07:29:13;;;;;;;1999.90;999.90;;;;;;;;;;4935728;29;20422;-74
2023/07/16 07:31:59;;;;;;;1999.90;999.90;;;;;;;;;;4936859;29;20233;-73
2023/07/16 07:34:44;;;;;;;1999.90;999.90;;;;;;;;;;4936264;29;20225;-74
2023/07/16 07:37:31;;;;;;;1999.90;999.90;;;;;;;;;;4936413;29;20201;-74
2023/07/16 07:40:16;;;;;;;1999.90;999.90;;;;;;;;;;4935837;29;20266;-74
2023/07/16 07:43:01;;;;;;;1999.90;999.90;;;;;;;;;;4936340;29;20213;-73
2023/07/16 07:45:45;;;;;;;1999.90;999.90;;;;;;;;;;4936361;29;20249;-74
2023/07/16 07:48:30;;;;;;;1999.90;999.90;;;;;;;;;;4936325;29;20269;-74
2023/07/16 07:51:15;;;;;;;1999.90;999.90;;;;;;;;;;4935102;29;20498;-75
2023/07/16 07:54:01;;;;;;;1999.90;999.90;;;;;;;;;;4936171;29;20233;-74
2023/07/16 07:56:47;;;;;;;1999.90;999.90;;;;;;;;;;4936132;29;20350;-74
2023/07/16 07:59:32;;;;;;;1999.90;999.90;;;;;;;;;;4936233;29;20214;-74
2023/07/16 08:02:18;;;;;;;1999.90;999.90;;;;;;;;;;4935866;29;20240;-74
2023/07/16 08:05:03;;;;;;;1999.90;999.90;;;;;;;;;;4936064;29;20209;-74
2023/07/16 08:07:48;;;;;;;1999.90;999.90;;;;;;;;;;4935744;29;20209;-74
2023/07/16 08:10:36;;;;;;;1999.90;999.90;;;;;;;;;;4935431;29;20795;-74
2023/07/16 08:13:21;;;;;;;1999.90;999.90;;;;;;;;;;4935858;29;20290;-73
2023/07/16 08:16:06;;;;;;;1999.90;999.90;;;;;;;;;;4935539;29;20225;-74
2023/07/16 08:18:51;;;;;;;1999.90;999.90;;;;;;;;;;4935581;29;20208;-73
2023/07/16 08:21:35;;;;;;;1999.90;999.90;;;;;;;;;;4935794;29;20277;-74
2023/07/16 08:24:20;;;;;;;1999.90;999.90;;;;;;;;;;4934677;29;20414;-73
2023/07/16 08:27:07;;;;;;;1999.90;999.90;;;;;;;;;;4935794;29;20346;-74
2023/07/16 08:29:52;;;;;;;1999.90;999.90;;;;;;;;;;4935511;29;20217;-74
2023/07/16 08:32:37;;;;;;;1999.90;999.90;;;;;;;;;;4935761;29;20237;-73
2023/07/16 08:35:22;;;;;;;1999.90;999.90;;;;;;;;;;4935343;29;20225;-73
2023/07/16 08:38:09;;;;;;;1999.90;999.90;;;;;;;;;;4935464;29;20254;-74
2023/07/16 08:40:54;;;;;;;1999.90;999.90;;;;;;;;;;4934894;29;20229;-73
2023/07/16 08:43:40;;;;;;;1999.90;999.90;;;;;;;;;;4934903;29;20497;-75
2023/07/16 08:46:25;;;;;;;1999.90;999.90;;;;;;;;;;4935551;29;20208;-74
2023/07/16 08:49:11;;;;;;;1999.90;999.90;;;;;;;;;;4934644;29;20232;-74
2023/07/16 08:51:57;;;;;;;1999.90;999.90;;;;;;;;;;4934910;29;20222;-73
2023/07/16 08:54:42;;;;;;;1999.90;999.90;;;;;;;;;;4935130;29;20229;-73
2023/07/16 08:57:27;;;;;;;1999.90;999.90;;;;;;;;;;4935379;29;20205;-74
2023/07/16 09:00:14;;;;;;;1999.90;999.90;;;;;;;;;;4935061;29;20245;-74
2023/07/16 09:02:59;;;;;;;1999.90;999.90;;;;;;;;;;4935048;29;20340;-75
2023/07/16 09:05:45;;;;;;;1999.90;999.90;;;;;;;;;;4935041;29;20257;-74
2023/07/16 09:08:30;;;;;;;1999.90;999.90;;;;;;;;;;4935032;29;20205;-74
2023/07/16 09:11:16;;;;;;;1999.90;999.90;;;;;;;;;;4934987;29;20815;-74
2023/07/16 09:14:02;;;;;;;1999.90;999.90;;;;;;;;;;4934677;29;20205;-74
2023/07/16 09:16:52;;;;;;;1999.90;999.90;;;;;;;;;;4934700;29;20888;-75
2023/07/16 09:19:37;;;;;;;1999.90;999.90;;;;;;;;;;4934758;29;20578;-74
2023/07/16 09:22:23;;;;;;;1999.90;999.90;;;;;;;;;;4935008;29;20725;-74
2023/07/16 09:25:08;;;;;;;1999.90;999.90;;;;;;;;;;4935204;29;20286;-75
2023/07/16 09:27:54;;;;;;;1999.90;999.90;;;;;;;;;;4934758;29;20209;-74
2023/07/16 09:30:39;;;;;;;1999.90;999.90;;;;;;;;;;4934375;29;20761;-74
2023/07/16 09:33:27;;;;;;;1999.90;999.90;;;;;;;;;;4934723;29;20224;-73
2023/07/16 09:36:12;;;;;;;1999.90;999.90;;;;;;;;;;4934457;29;20212;-74
2023/07/16 09:38:58;;;;;;;1999.90;999.90;;;;;;;;;;4933306;29;20783;-73
2023/07/16 09:41:43;;;;;;;1999.90;999.90;;;;;;;;;;4934600;29;20245;-74
2023/07/16 09:44:28;;;;;;;1999.90;999.90;;;;;;;;;;4934576;29;20227;-74
2023/07/16 09:47:13;;;;;;;1999.90;999.90;;;;;;;;;;4934671;29;20268;-73
2023/07/16 09:50:00;;;;;;;1999.90;999.90;;;;;;;;;;4934313;29;20754;-74
2023/07/16 09:52:46;;;;;;;1999.90;999.90;;;;;;;;;;4934470;29;20576;-74
2023/07/16 09:55:32;;;;;;;1999.90;999.90;;;;;;;;;;4934379;29;20237;-74
2023/07/16 09:58:19;;;;;;;1999.90;999.90;;;;;;;;;;4934557;29;20229;-74
2023/07/16 10:01:04;;;;;;;1999.90;999.90;;;;;;;;;;4933963;29;20237;-74
2023/07/16 10:03:50;;;;;;;1999.90;999.90;;;;;;;;;;4938266;29;20233;-74
2023/07/16 10:06:36;;;;;;;1999.90;999.90;;;;;;;;;;4938218;29;20591;-73
2023/07/16 10:09:35;;;;;;;1999.90;999.90;;;;;;;;;;4937735;29;20215;-73
2023/07/16 10:12:20;;;;;;;1999.90;999.90;;;;;;;;;;4936644;29;20523;-74
2023/07/16 10:15:06;;;;;;;1999.90;999.90;;;;;;;;;;4937993;29;20241;-74
2023/07/16 10:17:51;;;;;;;1999.90;999.90;;;;;;;;;;4938080;29;20221;-74
2023/07/16 10:20:42;;;;;;;1999.90;999.90;;;;;;;;;;4937624;29;20213;-74
2023/07/16 10:23:37;;;;;;;1999.90;999.90;;;;;;;;;;4937852;29;20205;-74
2023/07/16 10:26:27;;;;;;;1999.90;999.90;;;;;;;;;;4937812;29;20582;-74
2023/07/16 10:29:14;;;;;;;1999.90;999.90;;;;;;;;;;4937556;29;20210;-74
2023/07/16 10:31:59;;;;;;;1999.90;999.90;;;;;;;;;;4936741;29;20922;-74
2023/07/16 10:34:44;;;;;;;1999.90;999.90;;;;;;;;;;4937476;29;20265;-74
2023/07/16 10:37:29;;;;;;;1999.90;999.90;;;;;;;;;;4937648;29;20233;-74
2023/07/16 10:40:15;;;;;;;1999.90;999.90;;;;;;;;;;4937311;29;20216;-73
2023/07/16 10:43:00;;;;;;;1999.90;999.90;;;;;;;;;;4937505;29;20205;-74
2023/07/16 10:45:46;;;;;;;1999.90;999.90;;;;;;;;;;4937444;29;20205;-74
2023/07/16 10:48:31;;;;;;;1999.90;999.90;;;;;;;;;;4937492;29;20692;-74
2023/07/16 10:51:16;;;;;;;1999.90;999.90;;;;;;;;;;4937289;29;20369;-74
2023/07/16 10:54:05;;;;;;;1999.90;999.90;;;;;;;;;;4937444;29;20273;-74
2023/07/16 10:56:51;;;;;;;1999.90;999.90;;;;;;;;;;4937073;29;20792;-74
2023/07/16 10:59:37;;;;;;;1999.90;999.90;;;;;;;;;;4937019;29;20241;-74
2023/07/16 11:02:24;;;;;;;1999.90;999.90;;;;;;;;;;4937100;29;20287;-74
2023/07/16 11:05:10;;;;;;;1999.90;999.90;;;;;;;;;;4937156;29;20232;-73
2023/07/16 11:07:55;;;;;;;1999.90;999.90;;;;;;;;;;4937303;29;20266;-75
2023/07/16 11:10:40;;;;;;;1999.90;999.90;;;;;;;;;;4936504;29;20724;-73
2023/07/16 11:13:31;;;;;;;1999.90;999.90;;;;;;;;;;4937128;29;20218;-74
2023/07/16 11:16:16;;;;;;;1999.90;999.90;;;;;;;;;;4937043;29;20307;-74
2023/07/16 11:19:02;;;;;;;1999.90;999.90;;;;;;;;;;4936691;29;20578;-74
2023/07/16 11:21:47;;;;;;;1999.90;999.90;;;;;;;;;;4936848;29;20729;-74
2023/07/16 11:24:39;;;;;;;1999.90;999.90;;;;;;;;;;4936847;29;20224;-73
2023/07/16 11:27:26;;;;;;;1999.90;999.90;;;;;;;;;;4936857;29;20275;-74
2023/07/16 11:30:13;;;;;;;1999.90;999.90;;;;;;;;;;4936513;29;20702;-74
2023/07/16 11:32:59;;;;;;;1999.90;999.90;;;;;;;;;;4936680;29;20285;-74
2023/07/16 11:35:43;;;;;;;1999.90;999.90;;;;;;;;;;4936578;29;20229;-74
2023/07/16 11:38:28;;;;;;;1999.90;999.90;;;;;;;;;;4936634;29;20254;-74
2023/07/16 11:41:13;;;;;;;1999.90;999.90;;;;;;;;;;4936369;29;20285;-74
2023/07/16 11:44:02;;;;;;;1999.90;999.90;;;;;;;;;;4936503;29;20220;-74
2023/07/16 11:46:48;;;;;;;1999.90;999.90;;;;;;;;;;4936415;29;20205;-74
2023/07/16 11:49:33;;;;;;;1999.90;999.90;;;;;;;;;;4936079;29;20749;-74
2023/07/16 11:52:19;;;;;;;1999.90;999.90;;;;;;;;;;4936078;29;20224;-74
2023/07/16 11:55:05;;;;;;;1999.90;999.90;;;;;;;;;;4936232;29;20217;-74
2023/07/16 11:57:50;;;;;;;1999.90;999.90;;;;;;;;;;4936602;29;20200;-74
2023/07/16 12:00:35;;;;;;;1999.90;999.90;;;;;;;;;;4934353;29;20860;-74
2023/07/16 12:03:22;;;;;;;1999.90;999.90;;;;;;;;;;4935809;29;20234;-74
2023/07/16 12:06:08;;;;;;;1999.90;999.90;;;;;;;;;;4936688;29;20205;-74
2023/07/16 12:08:55;;;;;;;1999.90;999.90;;;;;;;;;;4935603;29;20229;-73
2023/07/16 12:11:39;;;;;;;1999.90;999.90;;;;;;;;;;4935914;29;20228;-74
2023/07/16 12:14:24;;;;;;;1999.90;999.90;;;;;;;;;;4935849;29;20201;-74
2023/07/16 12:17:09;;;;;;;1999.90;999.90;;;;;;;;;;4935516;29;20229;-74
2023/07/16 12:19:56;;;;;;;1999.90;999.90;;;;;;;;;;4935236;29;20877;-74
2023/07/16 12:22:40;;;;;;;1999.90;999.90;;;;;;;;;;4933002;29;20229;-74
2023/07/16 12:25:25;;;;;;;1999.90;999.90;;;;;;;;;;4932729;29;20584;-74
2023/07/16 12:28:11;;;;;;;1999.90;999.90;;;;;;;;;;4932616;29;20213;-74
2023/07/16 12:30:56;;;;;;;1999.90;999.90;;;;;;;;;;4934883;29;20284;-75
2023/07/16 12:33:41;;;;;;;1999.90;999.90;;;;;;;;;;4916682;29;20945;-75
2023/07/16 12:36:28;;;;;;;1999.90;999.90;;;;;;;;;;4916184;29;20351;-74
2023/07/16 12:39:13;;;;;;;1999.90;999.90;;;;;;;;;;4916379;29;20214;-74
2023/07/16 12:41:58;;;;;;;1999.90;999.90;;;;;;;;;;4916381;29;20309;-74
2023/07/16 12:44:43;;;;;;;1999.90;999.90;;;;;;;;;;4916259;29;20293;-74
2023/07/16 12:47:28;;;;;;;1999.90;999.90;;;;;;;;;;4916421;29;20702;-74
2023/07/16 12:50:13;;;;;;;1999.90;999.90;;;;;;;;;;4915968;29;20781;-74
2023/07/16 12:52:59;;;;;;;1999.90;999.90;;;;;;;;;;4916215;29;20209;-74
2023/07/16 12:55:44;;;;;;;1999.90;999.90;;;;;;;;;;4916086;29;20210;-74
2023/07/16 12:58:29;;;;;;;1999.90;999.90;;;;;;;;;;4916213;29;20254;-74
2023/07/16 13:01:14;;;;;;;1999.90;999.90;;;;;;;;;;4915859;29;20241;-74
2023/07/16 13:03:58;;;;;;;1999.90;999.90;;;;;;;;;;4916068;29;20233;-73
2023/07/16 13:06:47;;;;;;;1999.90;999.90;;;;;;;;;;4915830;29;20213;-74
2023/07/16 13:09:33;;;;;;;1999.90;999.90;;;;;;;;;;4915742;29;20305;-74
2023/07/16 13:12:18;;;;;;;1999.90;999.90;;;;;;;;;;4915732;29;20235;-74
2023/07/16 13:15:03;;;;;;;1999.90;999.90;;;;;;;;;;4915507;29;20497;-74
2023/07/16 13:17:48;;;;;;;1999.90;999.90;;;;;;;;;;4915690;29;20241;-74
2023/07/16 13:20:33;;;;;;;1999.90;999.90;;;;;;;;;;4915529;29;20205;-74
2023/07/16 13:23:18;;;;;;;1999.90;999.90;;;;;;;;;;4915803;29;20216;-74
2023/07/16 13:26:04;;;;;;;1999.90;999.90;;;;;;;;;;4915789;29;20273;-74
2023/07/16 13:28:50;;;;;;;1999.90;999.90;;;;;;;;;;4915721;29;20213;-73
2023/07/16 13:31:35;;;;;;;1999.90;999.90;;;;;;;;;;4915428;29;20229;-74
2023/07/16 13:34:19;;;;;;;1999.90;999.90;;;;;;;;;;4915478;29;20212;-74
2023/07/16 13:37:04;;;;;;;1999.90;999.90;;;;;;;;;;4918926;29;20248;-74
2023/07/16 13:39:50;;;;;;;1999.90;999.90;;;;;;;;;;4919113;29;20334;-74
2023/07/16 13:42:36;;;;;;;1999.90;999.90;;;;;;;;;;4919591;29;20305;-74
2023/07/16 13:45:21;;;;;;;1999.90;999.90;;;;;;;;;;4919747;29;20234;-74
2023/07/16 13:48:06;;;;;;;1999.90;999.90;;;;;;;;;;4919385;29;20507;-74
2023/07/16 13:50:51;;;;;;;1999.90;999.90;;;;;;;;;;4919191;29;20696;-74
2023/07/16 13:53:36;;;;;;;1999.90;999.90;;;;;;;;;;4919412;29;20209;-74
2023/07/16 13:56:21;;;;;;;1999.90;999.90;;;;;;;;;;4919242;29;20595;-74
2023/07/16 13:59:07;;;;;;;1999.90;999.90;;;;;;;;;;4919032;29;20210;-74
2023/07/16 14:01:59;;;;;;;1999.90;999.90;;;;;;;;;;4919380;29;20239;-74
2023/07/16 14:04:44;;;;;;;1999.90;999.90;;;;;;;;;;4919178;29;20206;-74
2023/07/16 14:07:29;;;;;;;1999.90;999.90;;;;;;;;;;4919244;29;20590;-73
2023/07/16 14:10:14;;;;;;;1999.90;999.90;;;;;;;;;;4918364;29;20457;-74
2023/07/16 14:12:59;;;;;;;1999.90;999.90;;;;;;;;;;4919061;29;20477;-73
2023/07/16 14:15:45;;;;;;;1999.90;999.90;;;;;;;;;;4918868;29;20702;-74
2023/07/16 14:18:31;;;;;;;1999.90;999.90;;;;;;;;;;4919199;29;20216;-73
2023/07/16 14:21:16;;;;;;;1999.90;999.90;;;;;;;;;;4918921;29;20289;-73
2023/07/16 14:24:01;;;;;;;1999.90;999.90;;;;;;;;;;4919078;29;20209;-73
2023/07/16 14:26:46;;;;;;;1999.90;999.90;;;;;;;;;;4918861;29;20214;-73
2023/07/16 14:29:31;;;;;;;1999.90;999.90;;;;;;;;;;4918545;29;20580;-73
2023/07/16 14:32:17;;;;;;;1999.90;999.90;;;;;;;;;;4918707;29;20362;-73
2023/07/16 14:35:02;;;;;;;1999.90;999.90;;;;;;;;;;4919060;29;20573;-73
2023/07/16 14:37:47;;;;;;;1999.90;999.90;;;;;;;;;;4918505;29;20975;-73
2023/07/16 14:40:32;;;;;;;1999.90;999.90;;;;;;;;;;4918268;29;20210;-74
2023/07/16 14:43:17;;;;;;;1999.90;999.90;;;;;;;;;;4918050;29;20463;-73
2023/07/16 14:46:02;;;;;;;1999.90;999.90;;;;;;;;;;4918494;29;20705;-74
2023/07/16 14:48:52;;;;;;;1999.90;999.90;;;;;;;;;;4917630;29;20213;-72
2023/07/16 14:51:39;;;;;;;1999.90;999.90;;;;;;;;;;4918107;29;20222;-73
2023/07/16 14:54:24;;;;;;;1999.90;999.90;;;;;;;;;;4918389;29;20261;-73
2023/07/16 14:57:09;;;;;;;1999.90;999.90;;;;;;;;;;4918372;29;20278;-73
2023/07/16 14:59:54;;;;;;;1999.90;999.90;;;;;;;;;;4917981;29;20209;-73
2023/07/16 15:02:39;;;;;;;1999.90;999.90;;;;;;;;;;4918219;29;20234;-73
2023/07/16 15:05:25;;;;;;;1999.90;999.90;;;;;;;;;;4917126;29;20407;-73
2023/07/16 15:08:10;;;;;;;1999.90;999.90;;;;;;;;;;4917897;29;20797;-73
2023/07/16 15:10:55;;;;;;;1999.90;999.90;;;;;;;;;;4917749;29;20304;-74
2023/07/16 15:13:40;;;;;;;1999.90;999.90;;;;;;;;;;4918065;29;20217;-73
2023/07/16 15:16:24;;;;;;;1999.90;999.90;;;;;;;;;;4917871;29;20210;-74
2023/07/16 15:19:11;;;;;;;1999.90;999.90;;;;;;;;;;4917765;29;20202;-73
2023/07/16 15:21:57;;;;;;;1999.90;999.90;;;;;;;;;;4917778;29;20742;-73
2023/07/16 15:24:42;;;;;;;1999.90;999.90;;;;;;;;;;4917829;29;20222;-73
2023/07/16 15:27:27;;;;;;;1999.90;999.90;;;;;;;;;;4917859;29;20337;-74
2023/07/16 15:30:13;;;;;;;1999.90;999.90;;;;;;;;;;4917492;29;20284;-73
2023/07/16 15:32:58;;;;;;;1999.90;999.90;;;;;;;;;;4917704;29;20201;-73
2023/07/16 15:35:42;;;;;;;1999.90;999.90;;;;;;;;;;4917663;29;20698;-73
2023/07/16 15:38:29;;;;;;;1999.90;999.90;;;;;;;;;;4916880;29;20584;-73
2023/07/16 15:41:15;;;;;;;1999.90;999.90;;;;;;;;;;4917338;29;20229;-73
2023/07/16 15:44:03;;;;;;;1999.90;999.90;;;;;;;;;;4917480;29;20743;-74
2023/07/16 15:46:48;;;;;;;1999.90;999.90;;;;;;;;;;4917312;29;20706;-74
2023/07/16 15:49:33;;;;;;;1999.90;999.90;;;;;;;;;;4917272;29;20242;-73
2023/07/16 15:52:18;;;;;;;1999.90;999.90;;;;;;;;;;4917276;29;20230;-74
2023/07/16 15:55:04;;;;;;;1999.90;999.90;;;;;;;;;;4917235;29;20695;-74
2023/07/16 15:57:50;;;;;;;1999.90;999.90;;;;;;;;;;4917107;29;20321;-73
2023/07/16 16:00:35;;;;;;;1999.90;999.90;;;;;;;;;;4914337;29;20435;-73
2023/07/16 16:03:20;;;;;;;1999.90;999.90;;;;;;;;;;4917170;29;20411;-73
2023/07/16 16:06:05;;;;;;;1999.90;999.90;;;;;;;;;;4917048;29;20274;-73
2023/07/16 16:08:50;;;;;;;1999.90;999.90;;;;;;;;;;4916869;29;20213;-73
2023/07/16 16:11:37;;;;;;;1999.90;999.90;;;;;;;;;;4916884;29;20304;-73
2023/07/16 16:14:22;;;;;;;1999.90;999.90;;;;;;;;;;4917247;29;20224;-73
2023/07/16 16:17:07;;;;;;;1999.90;999.90;;;;;;;;;;4916823;29;20226;-73
2023/07/16 16:19:52;;;;;;;1999.90;999.90;;;;;;;;;;4916564;29;20769;-73
2023/07/16 16:22:36;;;;;;;1999.90;999.90;;;;;;;;;;4916994;29;20252;-73
2023/07/16 16:25:21;;;;;;;1999.90;999.90;;;;;;;;;;4916819;29;20581;-74
2023/07/16 16:28:08;;;;;;;1999.90;999.90;;;;;;;;;;4916711;29;20213;-73
2023/07/16 16:30:53;;;;;;;1999.90;999.90;;;;;;;;;;4916098;29;20234;-73
2023/07/16 16:33:38;;;;;;;1999.90;999.90;;;;;;;;;;4915429;29;20476;-73
2023/07/16 16:36:22;;;;;;;1999.90;999.90;;;;;;;;;;4916666;29;20681;-74
2023/07/16 16:39:07;;;;;;;1999.90;999.90;;;;;;;;;;4916077;29;20747;-73
2023/07/16 16:41:52;;;;;;;1999.90;999.90;;;;;;;;;;4916556;29;20241;-73
2023/07/16 16:44:38;;;;;;;1999.90;999.90;;;;;;;;;;4917031;29;20635;-73
2023/07/16 16:47:23;;;;;;;1999.90;999.90;;;;;;;;;;4917017;29;20266;-73
2023/07/16 16:50:08;;;;;;;1999.90;999.90;;;;;;;;;;4916439;29;20581;-73
2023/07/16 16:52:58;;;;;;;1999.90;999.90;;;;;;;;;;4916231;29;20284;-73
2023/07/16 16:55:43;;;;;;;1999.90;999.90;;;;;;;;;;4916175;29;20210;-73
2023/07/16 16:58:28;;;;;;;1999.90;999.90;;;;;;;;;;4915894;29;20237;-73
2023/07/16 17:01:15;;;;;;;1999.90;999.90;;;;;;;;;;4919026;29;20323;-74
2023/07/16 17:04:00;;;;;;;1999.90;999.90;;;;;;;;;;4918414;29;20229;-72
2023/07/16 17:06:45;;;;;;;1999.90;999.90;;;;;;;;;;4917509;29;20689;-73
2023/07/16 17:09:29;;;;;;;1999.90;999.90;;;;;;;;;;4915870;29;20209;-73
2023/07/16 17:12:14;;;;;;;1999.90;999.90;;;;;;;;;;4917129;29;20225;-73
2023/07/16 17:14:59;;;;;;;1999.90;999.90;;;;;;;;;;4916128;29;20214;-73
2023/07/16 17:17:46;;;;;;;1999.90;999.90;;;;;;;;;;4915897;29;20728;-74
2023/07/16 17:20:31;;;;;;;1999.90;999.90;;;;;;;;;;4915318;29;20688;-74
2023/07/16 17:23:15;;;;;;;1999.90;999.90;;;;;;;;;;4915826;29;20314;-74
2023/07/16 17:26:00;;;;;;;1999.90;999.90;;;;;;;;;;4915985;29;20214;-74
2023/07/16 17:28:46;;;;;;;1999.90;999.90;;;;;;;;;;4914318;29;20420;-74
2023/07/16 17:31:32;;;;;;;1999.90;999.90;;;;;;;;;;4915929;29;20241;-74
2023/07/16 17:34:18;;;;;;;1999.90;999.90;;;;;;;;;;4915600;29;20209;-74
2023/07/16 17:37:03;;;;;;;1999.90;999.90;;;;;;;;;;4916168;29;20575;-74
2023/07/16 17:39:49;;;;;;;1999.90;999.90;;;;;;;;;;4915236;29;20687;-74
2023/07/16 17:42:34;;;;;;;1999.90;999.90;;;;;;;;;;4915484;29;20726;-74
2023/07/16 17:45:19;;;;;;;1999.90;999.90;;;;;;;;;;4915706;29;20228;-74
2023/07/16 17:48:04;;;;;;;1999.90;999.90;;;;;;;;;;4915422;29;20415;-74
2023/07/16 17:50:51;;;;;;;1999.90;999.90;;;;;;;;;;4915409;29;20734;-73
2023/07/16 17:53:36;;;;;;;1999.90;999.90;;;;;;;;;;4915628;29;20273;-74
2023/07/16 17:56:21;;;;;;;1999.90;999.90;;;;;;;;;;4915568;29;20216;-74
2023/07/16 17:59:06;;;;;;;1999.90;999.90;;;;;;;;;;4915270;29;20319;-73
2023/07/16 18:01:53;;;;;;;1999.90;999.90;;;;;;;;;;4915389;29;20367;-74
2023/07/16 18:04:38;;;;;;;1999.90;999.90;;;;;;;;;;4915260;29;20285;-74
2023/07/16 18:07:24;;;;;;;1999.90;999.90;;;;;;;;;;4915446;29;20208;-73
2023/07/16 18:10:10;;;;;;;1999.90;999.90;;;;;;;;;;4915109;29;20227;-73
2023/07/16 18:12:55;;;;;;;1999.90;999.90;;;;;;;;;;4915627;29;20541;-73
2023/07/16 18:15:40;;;;;;;1999.90;999.90;;;;;;;;;;4915567;29;20212;-73
2023/07/16 18:18:25;;;;;;;1999.90;999.90;;;;;;;;;;4915081;29;20310;-75
2023/07/16 18:21:10;;;;;;;1999.90;999.90;;;;;;;;;;4915135;29;20336;-74
2023/07/16 18:23:56;;;;;;;1999.90;999.90;;;;;;;;;;4917939;29;20204;-74
2023/07/16 18:26:41;;;;;;;1999.90;999.90;;;;;;;;;;4918836;29;20216;-73
2023/07/16 18:29:26;;;;;;;1999.90;999.90;;;;;;;;;;4918453;29;20313;-73
2023/07/16 18:32:11;;;;;;;1999.90;999.90;;;;;;;;;;4918746;29;20235;-74
2023/07/16 18:34:56;;;;;;;1999.90;999.90;;;;;;;;;;4918734;29;20345;-74
2023/07/16 18:37:41;;;;;;;1999.90;999.90;;;;;;;;;;4918316;29;20269;-74
2023/07/16 18:40:27;;;;;;;1999.90;999.90;;;;;;;;;;4918429;29;20215;-73
2023/07/16 18:43:12;;;;;;;1999.90;999.90;;;;;;;;;;4917767;29;20495;-73
2023/07/16 18:45:57;;;;;;;1999.90;999.90;;;;;;;;;;4918480;29;20213;-74
2023/07/16 18:48:42;;;;;;;1999.90;999.90;;;;;;;;;;4918466;29;20697;-73
2023/07/16 18:51:27;;;;;;;1999.90;999.90;;;;;;;;;;4918144;29;20225;-73
2023/07/16 18:54:12;;;;;;;1999.90;999.90;;;;;;;;;;4918363;29;20284;-74
2023/07/16 18:56:58;;;;;;;1999.90;999.90;;;;;;;;;;4918423;29;20215;-74
2023/07/16 18:59:43;;;;;;;1999.90;999.90;;;;;;;;;;4917881;29;20224;-73
2023/07/16 19:02:28;;;;;;;1999.90;999.90;;;;;;;;;;4918043;29;20234;-75
2023/07/16 19:05:13;;;;;;;1999.90;999.90;;;;;;;;;;4918181;29;20258;-73
2023/07/16 19:07:58;;;;;;;1999.90;999.90;;;;;;;;;;4918522;29;20212;-73
2023/07/16 19:10:43;;;;;;;1999.90;999.90;;;;;;;;;;4928882;29;20346;-73
2023/07/16 19:13:29;;;;;;;1999.90;999.90;;;;;;;;;;4929462;29;20687;-74
2023/07/16 19:16:14;;;;;;;1999.90;999.90;;;;;;;;;;4934179;29;21032;-74
2023/07/16 19:18:59;;;;;;;1999.90;999.90;;;;;;;;;;4926197;29;20598;-74
2023/07/16 19:21:44;;;;;;;1999.90;999.90;;;;;;;;;;4925665;29;20231;-73
2023/07/16 19:24:29;;;;;;;1999.90;999.90;;;;;;;;;;4932090;29;20221;-74